Newbury Park, CA (91320)

5:39 PM PDT on April 21, 2015 (GMT -0700)
Rancho Conejo | | Change Station
CLOSE
Current Station
Personal Weather Station
Location: Thousand Oaks, CA
Elevation: 656 ft
Nearby Weather Stations

Elev 656 ft 34.20 °N, 118.92 °W | Updated 12 seconds ago

Overcast
Overcast
61.2 °F
Feels Like 61.2 °F
N
0.0
Wind Variable Wind from ESE
Gusts 0.0 mph

Today
High -- | Low -- °F
--% Chance of Precip.
Yesterday
High -- | Low -- °F
Precip. -- in
6:17 AM 7:31 PM
Waxing Crescent, 14% visible
Pressure 29.92 in
Visibility 10.0 miles
Clouds Overcast 4800 ft
Dew Point 50 °F
Humidity 68%
Rainfall 0.00 in
Snow Depth Not available.
UV 1 out of 12
Pollen 8.20 out of 12
Air Quality Not available.
Flu Activity Sporadic
METAR KCMA 212355Z 27005KT 10SM OVC048 17/08 A2989 RMK AO2 SLP130 6//// T01720083 10200 20167 56013

More Conditions Fewer Conditions

Pressure 29.92 in
Visibility 10.0 miles
Clouds Overcast 4800 ft
Dew Point 50 °F
Humidity 68%
Rainfall 0.00 in
Snow Depth Not available.
UV 1 out of 12
Pollen 8.20 out of 12
Air Quality Not available.
Flu Activity Sporadic
METAR KCMA 212355Z 27005KT 10SM OVC048 17/08 A2989 RMK AO2 SLP130 6//// T01720083 10200 20167 56013

More Conditions Fewer Conditions

10-Day Weather Forecast

Almanac

Astronomy

Apr. 21, 2015 Rise Set
Actual Time
Civil Twilight
Nautical Twilight
Astronomical Twilight
Moon
Length of Visible Light
Length of Day
Tomorrow will be .
, % of the Moon is Illuminated

Today's Extremes

State Highs State Lows

Community

WunderPhotos

Upload Photos

1,815,588 photos uploaded!

WunderBlogs® & News

Nearby

Air Quality

  Air Quality AQ Index Pollutant
Not available.

Snow Depth

Station Depth Elevation

Earthquake Activity

City Distance Mag. Time & Date
Minimum magnitude displayed is 2.5.

Coastal Water Temperatures

Place Temperature

Stations

Nearby Weather Stations

Station Location Temp. Windchill Dew Point Humidity Wind Precip. Elev Updated Type